createdAt,value
2022-11-14T00:01:47.684Z,92.15
2022-11-14T00:04:14.867Z,91.65
2022-11-14T00:06:41.954Z,92.55
2022-11-14T00:09:29.830Z,92.98
2022-11-14T00:11:57.055Z,92.53
2022-11-14T00:14:24.855Z,92.48
2022-11-14T00:16:51.926Z,92.71
2022-11-14T00:19:19.074Z,92.53
2022-11-14T00:21:46.473Z,92.35
2022-11-14T00:24:13.867Z,92.68
2022-11-14T00:26:41.166Z,92.34
2022-11-14T00:29:12.611Z,91.90
2022-11-14T00:31:48.203Z,91.90
2022-11-14T00:34:15.546Z,92.64
2022-11-14T00:36:42.609Z,91.99
2022-11-14T00:39:17.638Z,93.00
2022-11-14T00:41:47.137Z,92.94
2022-11-14T00:44:19.430Z,92.64
2022-11-14T00:46:50.045Z,92.40
2022-11-14T00:49:20.166Z,92.49
2022-11-14T00:51:57.872Z,92.62
2022-11-14T00:54:28.346Z,92.99
2022-11-14T00:56:57.994Z,92.86
2022-11-14T00:59:25.328Z,92.56
2022-11-14T01:01:58.289Z,93.09
2022-11-14T01:04:28.371Z,92.55
2022-11-14T01:07:07.846Z,93.41
2022-11-14T01:09:34.886Z,93.39
2022-11-14T01:12:07.890Z,93.15
2022-11-14T01:14:42.888Z,93.56
2022-11-14T01:17:10.214Z,92.93
2022-11-14T01:19:41.097Z,93.84
2022-11-14T01:22:08.548Z,93.31
2022-11-14T01:24:36.383Z,93.75
2022-11-14T01:27:03.792Z,93.20
2022-11-14T01:29:30.909Z,94.23
2022-11-14T01:32:08.231Z,94.17
2022-11-14T01:34:35.253Z,93.40
2022-11-14T01:37:02.306Z,93.97
2022-11-14T01:39:29.352Z,93.79
2022-11-14T01:41:56.653Z,94.65
2022-11-14T01:44:52.877Z,94.79
2022-11-14T01:47:30.437Z,94.25
2022-11-14T01:50:05.553Z,94.87
2022-11-14T01:52:49.588Z,94.77
2022-11-14T01:55:17.112Z,94.55
2022-11-14T01:58:06.879Z,94.19
2022-11-14T02:00:34.235Z,94.24
2022-11-14T02:03:01.800Z,94.06
2022-11-14T02:05:30.030Z,94.08
2022-11-14T02:07:57.919Z,94.52
2022-11-14T02:10:25.359Z,94.79
2022-11-14T02:12:55.119Z,94.40
2022-11-14T02:15:28.043Z,94.56
2022-11-14T02:17:55.430Z,93.77
2022-11-14T02:20:32.890Z,94.21
2022-11-14T02:23:00.094Z,94.98
2022-11-14T02:25:32.734Z,94.91
2022-11-14T02:28:01.167Z,94.12
2022-11-14T02:30:28.430Z,94.82
2022-11-14T02:33:11.817Z,95.07
2022-11-14T02:35:39.320Z,94.43
2022-11-14T02:38:07.014Z,94.14
2022-11-14T02:40:37.691Z,94.39
2022-11-14T02:43:05.426Z,94.83
2022-11-14T02:45:32.582Z,95.08
2022-11-14T02:48:02.164Z,94.51
2022-11-14T02:50:51.403Z,94.49
2022-11-14T02:53:30.972Z,94.84
2022-11-14T02:55:58.148Z,94.18
2022-11-14T02:58:31.164Z,94.16
2022-11-14T03:01:20.345Z,93.79
2022-11-14T03:03:55.216Z,93.82
2022-11-14T03:06:22.590Z,94.43
2022-11-14T03:08:49.913Z,94.66
2022-11-14T03:11:25.533Z,94.12
2022-11-14T03:13:55.928Z,94.36
2022-11-14T03:16:32.011Z,94.25
2022-11-14T03:18:59.277Z,94.98
2022-11-14T03:21:27.039Z,95.43
2022-11-14T03:24:14.823Z,95.60
2022-11-14T03:26:47.600Z,95.36
2022-11-14T03:29:14.724Z,94.58
2022-11-14T03:31:41.931Z,95.33
2022-11-14T03:34:10.863Z,94.53
2022-11-14T03:36:41.194Z,95.34
2022-11-14T03:39:09.241Z,94.92
2022-11-14T03:41:36.350Z,95.62
2022-11-14T03:44:03.826Z,95.89
2022-11-14T03:46:30.839Z,95.13
2022-11-14T03:49:02.457Z,95.24
2022-11-14T03:51:29.913Z,95.85
2022-11-14T03:53:56.991Z,95.80
2022-11-14T03:56:24.315Z,95.31
2022-11-14T03:58:51.653Z,95.69
2022-11-14T04:01:21.639Z,95.32
2022-11-14T04:03:48.928Z,95.38
2022-11-14T04:06:17.993Z,95.47
2022-11-14T04:08:45.216Z,95.97
2022-11-14T04:11:15.173Z,95.60
2022-11-14T04:13:42.571Z,95.74
2022-11-14T04:16:09.605Z,95.62
2022-11-14T04:18:36.625Z,95.75
2022-11-14T04:21:04.430Z,95.38
2022-11-14T04:23:31.489Z,95.50
2022-11-14T04:25:58.519Z,95.44
2022-11-14T04:28:25.889Z,95.19
2022-11-14T04:30:54.025Z,95.42
2022-11-14T04:33:21.053Z,94.91
2022-11-14T04:35:48.719Z,95.45
2022-11-14T04:38:15.708Z,95.40
2022-11-14T04:40:53.612Z,95.34
2022-11-14T04:43:21.716Z,94.83
2022-11-14T04:45:48.775Z,94.68
2022-11-14T04:48:15.902Z,95.10
2022-11-14T04:50:42.936Z,95.18
2022-11-14T04:53:10.050Z,95.71
2022-11-14T04:55:37.087Z,95.62
2022-11-14T04:58:04.154Z,95.35
2022-11-14T05:00:32.450Z,95.47
2022-11-14T05:03:00.190Z,95.77
2022-11-14T05:05:27.607Z,95.70
2022-11-14T05:07:55.347Z,95.89
2022-11-14T05:10:25.320Z,95.75
2022-11-14T05:12:58.450Z,95.08
2022-11-14T05:15:26.174Z,95.61
2022-11-14T05:17:56.044Z,95.06
2022-11-14T05:20:23.357Z,95.67
2022-11-14T05:22:58.377Z,96.03
2022-11-14T05:25:29.119Z,95.50
2022-11-14T05:28:01.922Z,96.06
2022-11-14T05:30:28.888Z,95.80
2022-11-14T05:32:58.363Z,95.66
2022-11-14T05:35:25.468Z,95.38
2022-11-14T05:37:58.791Z,95.25
2022-11-14T05:40:37.750Z,94.99
2022-11-14T05:43:23.896Z,95.07
2022-11-14T05:45:51.646Z,94.92
2022-11-14T05:48:18.928Z,95.03
2022-11-14T05:50:46.144Z,95.33
2022-11-14T05:53:13.419Z,95.07
2022-11-14T05:55:45.026Z,95.21
2022-11-14T05:58:12.562Z,95.04
2022-11-14T06:00:46.577Z,95.79
2022-11-14T06:03:18.237Z,95.63
2022-11-14T06:05:45.376Z,95.25
2022-11-14T06:08:13.616Z,95.09
2022-11-14T06:10:44.493Z,95.50
2022-11-14T06:13:11.494Z,95.33
2022-11-14T06:15:38.760Z,95.03
2022-11-14T06:18:06.050Z,95.15
2022-11-14T06:20:33.145Z,95.77
2022-11-14T06:23:03.161Z,95.79
2022-11-14T06:25:30.462Z,94.98
2022-11-14T06:27:59.581Z,94.94
2022-11-14T06:30:27.257Z,95.20
2022-11-14T06:33:08.693Z,95.47
2022-11-14T06:35:37.097Z,95.47
2022-11-14T06:38:52.268Z,95.45
2022-11-14T06:41:22.756Z,96.02
2022-11-14T06:43:54.135Z,95.39
2022-11-14T06:46:24.259Z,95.70
2022-11-14T06:48:52.592Z,95.58
2022-11-14T06:51:22.511Z,95.81
2022-11-14T06:53:49.520Z,94.94
2022-11-14T06:56:20.639Z,95.68
2022-11-14T06:58:50.206Z,95.17
2022-11-14T07:01:26.019Z,95.10
2022-11-14T07:04:05.454Z,95.52
2022-11-14T07:06:40.203Z,94.79
2022-11-14T07:09:07.304Z,94.70
2022-11-14T07:11:38.613Z,95.18
2022-11-14T07:14:06.800Z,95.86
2022-11-14T07:16:35.830Z,95.45
2022-11-14T07:19:09.050Z,95.33
2022-11-14T07:21:37.542Z,94.97
2022-11-14T07:24:08.161Z,95.21
2022-11-14T07:26:35.276Z,94.28
2022-11-14T07:29:03.448Z,94.79
2022-11-14T07:31:35.027Z,95.36
2022-11-14T07:34:02.168Z,94.38
2022-11-14T07:36:29.254Z,94.52
2022-11-14T07:38:56.480Z,94.18
2022-11-14T07:41:26.434Z,94.69
2022-11-14T07:43:53.845Z,94.76
2022-11-14T07:46:29.271Z,94.88
2022-11-14T07:48:56.233Z,94.71
2022-11-14T07:51:23.272Z,93.91
2022-11-14T07:53:55.736Z,94.76
2022-11-14T07:56:25.849Z,94.17
2022-11-14T07:58:52.884Z,94.25
2022-11-14T08:01:20.050Z,93.98
2022-11-14T08:03:47.083Z,94.07
2022-11-14T08:06:18.825Z,93.93
2022-11-14T08:08:48.597Z,93.56
2022-11-14T08:11:31.776Z,92.83
2022-11-14T08:14:02.218Z,93.57
2022-11-14T08:16:29.262Z,93.14
2022-11-14T08:18:56.245Z,92.90
2022-11-14T08:21:23.535Z,93.84
2022-11-14T08:23:50.621Z,92.33
2022-11-14T08:26:17.745Z,93.69
2022-11-14T08:28:45.953Z,93.15
2022-11-14T08:31:13.682Z,94.12
2022-11-14T08:33:40.843Z,93.23
2022-11-14T08:36:08.440Z,94.39
2022-11-14T08:38:35.842Z,93.50
2022-11-14T08:41:04.062Z,93.83
2022-11-14T08:43:34.083Z,94.14
2022-11-14T08:46:04.528Z,94.43
2022-11-14T08:48:33.569Z,94.43
2022-11-14T08:51:07.745Z,93.54
2022-11-14T08:53:35.457Z,93.36
2022-11-14T08:56:03.038Z,93.07
2022-11-14T08:58:32.630Z,92.41
2022-11-14T09:01:07.177Z,92.38
2022-11-14T09:03:34.949Z,92.79
2022-11-14T09:06:03.697Z,92.96
2022-11-14T09:08:33.977Z,92.74
2022-11-14T09:11:05.592Z,92.75
2022-11-14T09:13:35.162Z,92.37
2022-11-14T09:16:02.915Z,92.35
2022-11-14T09:18:31.876Z,92.35
2022-11-14T09:21:09.193Z,92.97
2022-11-14T09:23:36.862Z,92.53
2022-11-14T09:26:09.805Z,92.52
2022-11-14T09:28:37.796Z,91.08
2022-11-14T09:31:09.979Z,90.37
2022-11-14T09:33:40.376Z,91.28
2022-11-14T09:36:11.247Z,91.74
2022-11-14T09:38:38.933Z,91.43
2022-11-14T09:41:08.681Z,91.08
2022-11-14T09:44:39.004Z,90.97
2022-11-14T09:47:20.526Z,90.64
2022-11-14T09:49:54.848Z,90.25
2022-11-14T09:52:58.900Z,90.50
2022-11-14T09:55:37.218Z,89.51
2022-11-14T09:58:05.454Z,89.93
2022-11-14T10:00:56.798Z,89.64
2022-11-14T10:03:58.896Z,89.50
2022-11-14T10:06:30.483Z,87.77
2022-11-14T10:09:44.668Z,88.18
2022-11-14T10:12:23.695Z,87.83
2022-11-14T10:15:15.150Z,87.31
2022-11-14T10:18:33.369Z,88.83
2022-11-14T10:21:32.986Z,88.45
2022-11-14T10:24:45.993Z,87.89
2022-11-14T10:27:58.497Z,87.42
2022-11-14T10:31:10.114Z,87.92
2022-11-14T10:34:26.407Z,86.69
2022-11-14T10:37:33.281Z,87.50
2022-11-14T10:40:33.747Z,87.04
2022-11-14T10:43:35.361Z,86.18
2022-11-14T10:46:32.843Z,86.74
2022-11-14T10:49:13.871Z,85.31
2022-11-14T10:51:46.831Z,86.42
2022-11-14T10:54:32.960Z,85.98
2022-11-14T10:57:00.065Z,85.96
2022-11-14T10:59:29.611Z,85.01
2022-11-14T11:01:58.741Z,85.24
2022-11-14T11:04:43.669Z,85.16
2022-11-14T11:07:30.596Z,85.98
2022-11-14T11:10:21.069Z,84.71
2022-11-14T11:12:52.685Z,85.01
2022-11-14T11:15:26.312Z,85.04
2022-11-14T11:18:05.070Z,85.15
2022-11-14T11:20:38.501Z,84.98
2022-11-14T11:23:11.502Z,84.83
2022-11-14T11:25:40.518Z,83.84
2022-11-14T11:28:21.569Z,83.16
2022-11-14T11:31:07.639Z,84.32
2022-11-14T11:33:38.193Z,83.24
2022-11-14T11:36:18.157Z,83.41
2022-11-14T11:38:47.595Z,82.62
2022-11-14T11:42:07.685Z,82.25
2022-11-14T11:44:18.778Z,83.33
2022-11-14T11:47:01.120Z,83.79
2022-11-14T11:49:52.014Z,83.91
2022-11-14T11:53:19.554Z,83.92
2022-11-14T11:55:59.257Z,83.35
2022-11-14T11:58:49.820Z,83.50
2022-11-14T12:01:17.881Z,84.20
2022-11-14T12:03:54.197Z,84.21
2022-11-14T12:06:27.196Z,83.92
2022-11-14T12:10:03.510Z,83.50
2022-11-14T12:12:42.972Z,82.93
2022-11-14T12:15:51.406Z,81.43
2022-11-14T12:18:49.070Z,82.21
2022-11-14T12:21:46.844Z,82.39
2022-11-14T12:25:38.209Z,81.91
2022-11-14T12:28:40.561Z,82.34
2022-11-14T12:31:16.912Z,81.41
2022-11-14T12:34:04.066Z,81.27
2022-11-14T12:36:34.952Z,81.12
2022-11-14T12:39:03.280Z,79.94
2022-11-14T12:41:39.006Z,79.05
2022-11-14T12:44:26.928Z,77.67
2022-11-14T12:47:06.223Z,77.88
2022-11-14T12:49:48.289Z,78.92
2022-11-14T12:52:52.736Z,77.18
2022-11-14T12:55:31.607Z,77.04
2022-11-14T12:58:42.755Z,76.30
2022-11-14T13:01:31.936Z,76.70
2022-11-14T13:05:04.280Z,77.20
2022-11-14T13:08:31.186Z,75.80
2022-11-14T13:10:58.698Z,77.41
2022-11-14T13:13:44.703Z,77.15
2022-11-14T13:16:51.091Z,76.61
2022-11-14T13:19:40.788Z,76.05
2022-11-14T13:22:37.350Z,76.60
2022-11-14T13:25:20.759Z,77.18
2022-11-14T13:31:16.898Z,77.30
2022-11-14T13:34:38.889Z,78.12
2022-11-14T13:37:59.903Z,77.69
2022-11-14T13:40:44.468Z,78.25
2022-11-14T13:43:42.685Z,77.72
2022-11-14T13:47:07.475Z,78.41
2022-11-14T13:50:13.865Z,80.40
2022-11-14T13:52:48.915Z,79.42
2022-11-14T13:55:50.075Z,80.10
2022-11-14T13:59:03.228Z,80.71
2022-11-14T14:01:30.115Z,80.61
2022-11-14T14:04:49.270Z,80.87
2022-11-14T14:07:37.508Z,81.64
2022-11-14T14:10:41.568Z,82.02
2022-11-14T14:14:03.666Z,82.00
2022-11-14T14:16:49.958Z,82.21
2022-11-14T14:20:19.732Z,82.39
2022-11-14T14:23:11.053Z,82.40
2022-11-14T14:26:27.545Z,83.38
2022-11-14T14:29:58.188Z,83.35
2022-11-14T14:32:25.563Z,83.37
2022-11-14T14:34:56.939Z,83.51
2022-11-14T14:37:28.697Z,83.50
2022-11-14T14:40:22.359Z,83.77
2022-11-14T14:42:49.404Z,84.90
2022-11-14T14:45:24.057Z,84.72
2022-11-14T14:48:15.652Z,85.39
2022-11-14T14:50:58.715Z,86.34
2022-11-14T14:53:35.802Z,85.95
2022-11-14T14:56:16.997Z,86.39
2022-11-14T14:58:44.360Z,86.85
2022-11-14T15:01:23.313Z,85.92
2022-11-14T15:04:07.850Z,86.37
2022-11-14T15:06:39.268Z,87.23
2022-11-14T15:09:28.042Z,86.31
2022-11-14T15:11:59.018Z,87.09
2022-11-14T15:14:36.945Z,87.17
2022-11-14T15:17:05.055Z,88.11
2022-11-14T15:19:45.013Z,87.36
2022-11-14T15:22:14.605Z,87.46
2022-11-14T15:24:42.181Z,87.58
2022-11-14T15:27:19.981Z,87.97
2022-11-14T15:30:07.525Z,87.23
2022-11-14T15:33:34.211Z,88.65
2022-11-14T15:36:27.321Z,88.75
2022-11-14T15:39:29.389Z,88.31
2022-11-14T15:42:21.013Z,88.21
2022-11-14T15:44:54.569Z,88.14
2022-11-14T15:47:50.349Z,87.67
2022-11-14T15:50:37.579Z,87.75
2022-11-14T15:53:27.805Z,88.05
2022-11-14T15:55:54.985Z,88.78
2022-11-14T15:58:28.346Z,87.98
2022-11-14T16:00:56.632Z,88.35
2022-11-14T16:03:24.292Z,88.16
2022-11-14T16:05:51.253Z,88.59
2022-11-14T16:08:18.265Z,88.42
2022-11-14T16:10:45.533Z,87.56
2022-11-14T16:13:12.658Z,87.95
2022-11-14T16:15:39.779Z,88.66
2022-11-14T16:18:07.201Z,87.97
2022-11-14T16:20:37.899Z,88.30
2022-11-14T16:23:05.402Z,88.75
2022-11-14T16:25:33.013Z,89.62
2022-11-14T16:27:59.993Z,88.29
2022-11-14T16:30:28.403Z,88.90
2022-11-14T16:32:55.375Z,89.38
2022-11-14T16:35:26.690Z,88.74
2022-11-14T16:37:56.641Z,87.94
2022-11-14T16:40:27.757Z,89.13
2022-11-14T16:42:57.690Z,89.66
2022-11-14T16:45:26.613Z,88.48
2022-11-14T16:47:53.744Z,89.26
2022-11-14T16:50:20.838Z,89.93
2022-11-14T16:52:47.932Z,90.02
2022-11-14T16:55:15.060Z,89.66
2022-11-14T16:57:42.154Z,88.91
2022-11-14T17:00:14.556Z,89.58
2022-11-14T17:02:42.044Z,88.27
2022-11-14T17:05:09.718Z,88.81
2022-11-14T17:07:36.945Z,88.60
2022-11-14T17:10:06.198Z,88.40
2022-11-14T17:12:36.753Z,88.62
2022-11-14T17:15:04.147Z,88.62
2022-11-14T17:17:31.496Z,89.20
2022-11-14T17:19:58.662Z,89.14
2022-11-14T17:22:25.702Z,89.27
2022-11-14T17:24:52.657Z,89.26
2022-11-14T17:27:19.898Z,90.64
2022-11-14T17:29:46.917Z,89.18
2022-11-14T17:32:13.891Z,89.29
2022-11-14T17:34:40.927Z,90.54
2022-11-14T17:37:07.955Z,88.16
2022-11-14T17:39:35.097Z,89.88
2022-11-14T17:42:02.140Z,90.78
2022-11-14T17:44:29.104Z,91.06
2022-11-14T17:46:56.076Z,89.89
2022-11-14T17:49:23.060Z,89.68
2022-11-14T17:51:50.112Z,90.04
2022-11-14T17:54:17.090Z,88.94
2022-11-14T17:56:48.517Z,88.95
2022-11-14T17:59:16.879Z,90.30
2022-11-14T18:01:43.953Z,89.91
2022-11-14T18:04:12.017Z,89.42
2022-11-14T18:06:38.967Z,89.40
2022-11-14T18:09:08.125Z,88.29
2022-11-14T18:11:38.410Z,89.40
2022-11-14T18:14:05.416Z,88.67
2022-11-14T18:16:57.451Z,89.38
2022-11-14T18:19:19.388Z,90.33
2022-11-14T18:21:52.043Z,88.86
2022-11-14T18:24:21.519Z,89.57
2022-11-14T18:26:48.501Z,89.65
2022-11-14T18:29:15.717Z,89.21
2022-11-14T18:31:42.726Z,89.92
2022-11-14T18:34:09.732Z,90.19
2022-11-14T18:36:37.065Z,89.27
2022-11-14T18:39:04.231Z,89.73
2022-11-14T18:41:31.290Z,89.54
2022-11-14T18:43:58.370Z,90.63
2022-11-14T18:46:26.579Z,90.63
2022-11-14T18:48:57.183Z,92.09
2022-11-14T18:51:29.793Z,91.06
2022-11-14T18:53:59.269Z,91.35
2022-11-14T18:56:26.944Z,91.55
2022-11-14T18:58:56.417Z,91.37
2022-11-14T19:01:29.277Z,91.22
2022-11-14T19:04:00.687Z,92.61
2022-11-14T19:06:29.602Z,91.36
2022-11-14T19:09:11.081Z,92.12
2022-11-14T19:11:57.613Z,92.34
2022-11-14T19:14:24.706Z,91.70
2022-11-14T19:16:51.679Z,92.91
2022-11-14T19:19:18.666Z,92.58
2022-11-14T19:21:50.379Z,92.15
2022-11-14T19:24:18.228Z,92.60
2022-11-14T19:26:45.609Z,92.20
2022-11-14T19:29:15.515Z,91.51
2022-11-14T19:31:43.366Z,92.65
2022-11-14T19:34:11.202Z,93.40
2022-11-14T19:36:58.695Z,92.30
2022-11-14T19:39:25.548Z,92.78
2022-11-14T19:41:52.591Z,92.52
2022-11-14T19:44:19.791Z,92.21
2022-11-14T19:46:48.055Z,93.39
2022-11-14T19:49:15.736Z,92.84
2022-11-14T19:51:43.004Z,92.38
2022-11-14T19:54:11.194Z,91.90
2022-11-14T19:56:38.321Z,92.42
2022-11-14T19:59:09.646Z,93.11
2022-11-14T20:01:41.993Z,91.44
2022-11-14T20:04:13.063Z,93.04
2022-11-14T20:06:41.551Z,93.65
2022-11-14T20:09:11.050Z,93.61
2022-11-14T20:11:38.485Z,93.07
2022-11-14T20:14:06.123Z,92.57
2022-11-14T20:16:36.566Z,92.56
2022-11-14T20:19:04.751Z,92.99
2022-11-14T20:21:34.346Z,92.89
2022-11-14T20:24:01.761Z,93.26
2022-11-14T20:26:28.839Z,93.21
2022-11-14T20:28:55.879Z,93.59
2022-11-14T20:31:28.085Z,93.47
2022-11-14T20:33:56.644Z,92.88
2022-11-14T20:36:31.936Z,93.65
2022-11-14T20:39:02.396Z,93.65
2022-11-14T20:41:29.451Z,93.66
2022-11-14T20:43:56.499Z,93.72
2022-11-14T20:46:23.551Z,93.63
2022-11-14T20:48:50.670Z,93.18
2022-11-14T20:51:24.743Z,92.75
2022-11-14T20:53:55.118Z,93.04
2022-11-14T20:56:23.308Z,92.99
2022-11-14T20:58:54.121Z,93.13
2022-11-14T21:01:21.474Z,93.49
2022-11-14T21:03:49.121Z,93.71
2022-11-14T21:06:17.001Z,93.80
2022-11-14T21:08:44.533Z,93.62
2022-11-14T21:11:17.999Z,93.33
2022-11-14T21:13:57.260Z,93.66
2022-11-14T21:16:38.597Z,93.24
2022-11-14T21:19:07.237Z,94.27
2022-11-14T21:21:37.382Z,93.76
2022-11-14T21:24:05.322Z,93.79
2022-11-14T21:26:38.123Z,93.56
2022-11-14T21:29:12.433Z,94.45
2022-11-14T21:31:45.841Z,94.39
2022-11-14T21:34:16.698Z,94.53
2022-11-14T21:36:46.107Z,94.14
2022-11-14T21:39:16.342Z,94.47
2022-11-14T21:41:45.596Z,94.52
2022-11-14T21:44:16.382Z,94.62
2022-11-14T21:46:47.024Z,94.18
2022-11-14T21:49:14.316Z,93.79
2022-11-14T21:51:41.432Z,93.79
2022-11-14T21:54:10.080Z,94.11
2022-11-14T21:56:37.550Z,93.98
2022-11-14T21:59:16.382Z,93.75
2022-11-14T22:02:07.713Z,93.85
2022-11-14T22:04:36.420Z,93.93
2022-11-14T22:07:07.107Z,94.65
2022-11-14T22:09:36.360Z,94.65
2022-11-14T22:12:07.543Z,94.52
2022-11-14T22:14:34.531Z,94.15
2022-11-14T22:17:01.503Z,94.32
2022-11-14T22:19:28.491Z,94.76
2022-11-14T22:21:55.551Z,94.54
2022-11-14T22:24:23.624Z,94.95
2022-11-14T22:26:50.628Z,94.42
2022-11-14T22:29:18.136Z,94.84
2022-11-14T22:31:45.178Z,94.82
2022-11-14T22:34:12.466Z,95.33
2022-11-14T22:36:39.488Z,94.89
2022-11-14T22:39:06.516Z,95.12
2022-11-14T22:41:33.946Z,94.99
2022-11-14T22:44:01.941Z,95.75
2022-11-14T22:46:29.749Z,95.27
2022-11-14T22:48:58.118Z,95.19
2022-11-14T22:51:28.049Z,95.07
2022-11-14T22:53:57.988Z,95.54
2022-11-14T22:56:29.318Z,96.10
2022-11-14T22:58:59.134Z,95.48
2022-11-14T23:01:32.556Z,95.31
2022-11-14T23:04:04.074Z,95.69
2022-11-14T23:06:33.995Z,95.05
2022-11-14T23:09:02.929Z,95.25
2022-11-14T23:11:33.146Z,94.72
2022-11-14T23:14:01.715Z,94.90
2022-11-14T23:16:33.477Z,95.01
2022-11-14T23:19:03.988Z,94.77
2022-11-14T23:21:35.880Z,95.67
2022-11-14T23:24:11.321Z,95.29
2022-11-14T23:26:38.280Z,96.13
2022-11-14T23:29:05.297Z,95.17
2022-11-14T23:31:32.323Z,95.24
2022-11-14T23:33:59.287Z,94.91
2022-11-14T23:36:26.299Z,95.36
2022-11-14T23:38:53.936Z,95.26
2022-11-14T23:41:27.279Z,95.06
2022-11-14T23:43:54.228Z,95.57
2022-11-14T23:46:21.526Z,95.41
2022-11-14T23:48:48.742Z,94.35
2022-11-14T23:51:15.842Z,95.38
2022-11-14T23:53:43.179Z,95.05
2022-11-14T23:56:13.615Z,95.12
2022-11-14T23:58:41.577Z,95.78
